sensor_id;sensor_type;location;lat;lon;timestamp;P1;durP1;ratioP1;P2;durP2;ratioP2
14732;SDS011;7457;50.960;6.830;2023-08-01T00:01:31;1.38;;;0.60;;
14732;SDS011;7457;50.960;6.830;2023-08-01T00:03:57;1.00;;;0.52;;
14732;SDS011;7457;50.960;6.830;2023-08-01T00:06:23;1.15;;;0.40;;
14732;SDS011;7457;50.960;6.830;2023-08-01T00:08:50;0.50;;;0.50;;
14732;SDS011;7457;50.960;6.830;2023-08-01T00:11:16;0.60;;;0.60;;
14732;SDS011;7457;50.960;6.830;2023-08-01T00:13:42;0.70;;;0.50;;
14732;SDS011;7457;50.960;6.830;2023-08-01T00:16:10;0.50;;;0.50;;
14732;SDS011;7457;50.960;6.830;2023-08-01T00:18:36;3.45;;;0.47;;
14732;SDS011;7457;50.960;6.830;2023-08-01T00:21:02;2.05;;;0.30;;
14732;SDS011;7457;50.960;6.830;2023-08-01T00:23:30;1.88;;;0.70;;
14732;SDS011;7457;50.960;6.830;2023-08-01T00:25:56;1.65;;;0.80;;
14732;SDS011;7457;50.960;6.830;2023-08-01T00:28:22;1.13;;;0.70;;
14732;SDS011;7457;50.960;6.830;2023-08-01T00:30:47;1.23;;;0.50;;
14732;SDS011;7457;50.960;6.830;2023-08-01T00:33:13;2.13;;;0.95;;
14732;SDS011;7457;50.960;6.830;2023-08-01T00:35:40;2.95;;;0.98;;
14732;SDS011;7457;50.960;6.830;2023-08-01T00:38:06;2.40;;;0.65;;
14732;SDS011;7457;50.960;6.830;2023-08-01T00:40:32;0.80;;;0.50;;
14732;SDS011;7457;50.960;6.830;2023-08-01T00:42:58;2.65;;;0.63;;
14732;SDS011;7457;50.960;6.830;2023-08-01T00:45:25;2.35;;;0.52;;
14732;SDS011;7457;50.960;6.830;2023-08-01T00:47:52;1.95;;;0.50;;
14732;SDS011;7457;50.960;6.830;2023-08-01T00:50:19;3.65;;;0.65;;
14732;SDS011;7457;50.960;6.830;2023-08-01T00:52:45;1.92;;;1.20;;
14732;SDS011;7457;50.960;6.830;2023-08-01T00:55:12;3.67;;;1.20;;
14732;SDS011;7457;50.960;6.830;2023-08-01T00:57:38;3.58;;;0.98;;
14732;SDS011;7457;50.960;6.830;2023-08-01T01:00:05;1.40;;;0.63;;
14732;SDS011;7457;50.960;6.830;2023-08-01T01:02:31;0.90;;;0.47;;
14732;SDS011;7457;50.960;6.830;2023-08-01T01:04:56;0.43;;;0.35;;
14732;SDS011;7457;50.960;6.830;2023-08-01T01:07:22;1.45;;;0.70;;
14732;SDS011;7457;50.960;6.830;2023-08-01T01:09:50;7.82;;;0.70;;
14732;SDS011;7457;50.960;6.830;2023-08-01T01:12:15;1.77;;;0.60;;
14732;SDS011;7457;50.960;6.830;2023-08-01T01:14:41;0.77;;;0.40;;
14732;SDS011;7457;50.960;6.830;2023-08-01T01:17:07;0.65;;;0.50;;
14732;SDS011;7457;50.960;6.830;2023-08-01T01:19:32;0.57;;;0.40;;
14732;SDS011;7457;50.960;6.830;2023-08-01T01:21:58;2.78;;;0.30;;
14732;SDS011;7457;50.960;6.830;2023-08-01T01:24:24;0.40;;;0.20;;
14732;SDS011;7457;50.960;6.830;2023-08-01T01:26:52;0.90;;;0.43;;
14732;SDS011;7457;50.960;6.830;2023-08-01T01:29:20;0.40;;;0.40;;
14732;SDS011;7457;50.960;6.830;2023-08-01T01:31:46;3.00;;;0.47;;
14732;SDS011;7457;50.960;6.830;2023-08-01T01:34:14;1.98;;;0.50;;
14732;SDS011;7457;50.960;6.830;2023-08-01T01:36:40;1.00;;;0.65;;
14732;SDS011;7457;50.960;6.830;2023-08-01T01:39:05;0.60;;;0.60;;
14732;SDS011;7457;50.960;6.830;2023-08-01T01:41:31;1.25;;;0.70;;
14732;SDS011;7457;50.960;6.830;2023-08-01T01:43:57;0.47;;;0.40;;
14732;SDS011;7457;50.960;6.830;2023-08-01T01:46:22;3.60;;;0.68;;
14732;SDS011;7457;50.960;6.830;2023-08-01T01:48:48;3.20;;;0.43;;
14732;SDS011;7457;50.960;6.830;2023-08-01T01:51:13;0.65;;;0.50;;
14732;SDS011;7457;50.960;6.830;2023-08-01T01:53:39;2.28;;;0.50;;
14732;SDS011;7457;50.960;6.830;2023-08-01T01:56:05;0.75;;;0.50;;
14732;SDS011;7457;50.960;6.830;2023-08-01T01:58:31;1.02;;;0.43;;
14732;SDS011;7457;50.960;6.830;2023-08-01T02:00:56;0.50;;;0.50;;
14732;SDS011;7457;50.960;6.830;2023-08-01T02:03:22;1.50;;;0.40;;
14732;SDS011;7457;50.960;6.830;2023-08-01T02:05:47;1.48;;;0.80;;
14732;SDS011;7457;50.960;6.830;2023-08-01T02:08:13;1.35;;;0.80;;
14732;SDS011;7457;50.960;6.830;2023-08-01T02:10:39;1.52;;;0.93;;
14732;SDS011;7457;50.960;6.830;2023-08-01T02:13:04;1.48;;;0.90;;
14732;SDS011;7457;50.960;6.830;2023-08-01T02:15:30;2.65;;;0.70;;
14732;SDS011;7457;50.960;6.830;2023-08-01T02:17:56;1.75;;;0.75;;
14732;SDS011;7457;50.960;6.830;2023-08-01T02:20:21;1.55;;;1.00;;
14732;SDS011;7457;50.960;6.830;2023-08-01T02:22:47;3.13;;;1.40;;
14732;SDS011;7457;50.960;6.830;2023-08-01T02:25:12;0.80;;;0.80;;
14732;SDS011;7457;50.960;6.830;2023-08-01T02:27:38;2.28;;;0.70;;
14732;SDS011;7457;50.960;6.830;2023-08-01T02:30:04;3.20;;;1.00;;
14732;SDS011;7457;50.960;6.830;2023-08-01T02:32:30;3.60;;;1.05;;
14732;SDS011;7457;50.960;6.830;2023-08-01T02:34:56;1.35;;;1.25;;
14732;SDS011;7457;50.960;6.830;2023-08-01T02:37:22;1.90;;;1.05;;
14732;SDS011;7457;50.960;6.830;2023-08-01T02:39:47;1.17;;;1.08;;
14732;SDS011;7457;50.960;6.830;2023-08-01T02:42:13;1.00;;;0.90;;
14732;SDS011;7457;50.960;6.830;2023-08-01T02:44:38;3.88;;;1.17;;
14732;SDS011;7457;50.960;6.830;2023-08-01T02:47:04;2.15;;;1.25;;
14732;SDS011;7457;50.960;6.830;2023-08-01T02:49:31;1.65;;;1.20;;
14732;SDS011;7457;50.960;6.830;2023-08-01T02:51:57;1.95;;;1.27;;
14732;SDS011;7457;50.960;6.830;2023-08-01T02:54:23;1.20;;;1.10;;
14732;SDS011;7457;50.960;6.830;2023-08-01T02:56:49;1.83;;;1.55;;
14732;SDS011;7457;50.960;6.830;2023-08-01T02:59:16;1.75;;;1.45;;
14732;SDS011;7457;50.960;6.830;2023-08-01T03:01:43;2.55;;;1.50;;
14732;SDS011;7457;50.960;6.830;2023-08-01T03:04:09;1.58;;;1.48;;
14732;SDS011;7457;50.960;6.830;2023-08-01T03:06:36;3.25;;;1.92;;
14732;SDS011;7457;50.960;6.830;2023-08-01T03:09:02;2.85;;;1.85;;
14732;SDS011;7457;50.960;6.830;2023-08-01T03:11:32;2.05;;;1.75;;
14732;SDS011;7457;50.960;6.830;2023-08-01T03:13:58;3.85;;;1.80;;
14732;SDS011;7457;50.960;6.830;2023-08-01T03:16:24;2.08;;;1.85;;
14732;SDS011;7457;50.960;6.830;2023-08-01T03:18:49;2.10;;;1.90;;
14732;SDS011;7457;50.960;6.830;2023-08-01T03:21:15;4.60;;;1.98;;
14732;SDS011;7457;50.960;6.830;2023-08-01T03:23:41;2.13;;;1.92;;
14732;SDS011;7457;50.960;6.830;2023-08-01T03:26:07;3.55;;;2.30;;
14732;SDS011;7457;50.960;6.830;2023-08-01T03:28:32;2.92;;;2.30;;
14732;SDS011;7457;50.960;6.830;2023-08-01T03:30:58;2.67;;;2.40;;
14732;SDS011;7457;50.960;6.830;2023-08-01T03:33:24;3.83;;;2.55;;
14732;SDS011;7457;50.960;6.830;2023-08-01T03:35:49;4.82;;;2.92;;
14732;SDS011;7457;50.960;6.830;2023-08-01T03:38:15;5.10;;;3.40;;
14732;SDS011;7457;50.960;6.830;2023-08-01T03:40:40;5.20;;;3.63;;
14732;SDS011;7457;50.960;6.830;2023-08-01T03:43:06;7.93;;;3.58;;
14732;SDS011;7457;50.960;6.830;2023-08-01T03:45:34;6.68;;;4.57;;
14732;SDS011;7457;50.960;6.830;2023-08-01T03:47:59;4.72;;;4.13;;
14732;SDS011;7457;50.960;6.830;2023-08-01T03:50:25;8.52;;;4.38;;
14732;SDS011;7457;50.960;6.830;2023-08-01T03:52:51;7.82;;;4.82;;
14732;SDS011;7457;50.960;6.830;2023-08-01T03:55:16;5.50;;;4.43;;
14732;SDS011;7457;50.960;6.830;2023-08-01T03:57:42;6.22;;;4.20;;
14732;SDS011;7457;50.960;6.830;2023-08-01T04:00:08;7.82;;;4.82;;
14732;SDS011;7457;50.960;6.830;2023-08-01T04:02:40;8.82;;;5.38;;
14732;SDS011;7457;50.960;6.830;2023-08-01T04:05:07;5.75;;;5.00;;
14732;SDS011;7457;50.960;6.830;2023-08-01T04:07:34;7.85;;;6.07;;
14732;SDS011;7457;50.960;6.830;2023-08-01T04:10:00;8.52;;;6.30;;
14732;SDS011;7457;50.960;6.830;2023-08-01T04:12:26;12.93;;;6.63;;
14732;SDS011;7457;50.960;6.830;2023-08-01T04:14:51;8.93;;;5.90;;
14732;SDS011;7457;50.960;6.830;2023-08-01T04:17:17;6.15;;;5.40;;
14732;SDS011;7457;50.960;6.830;2023-08-01T04:19:42;9.85;;;6.97;;
14732;SDS011;7457;50.960;6.830;2023-08-01T04:22:08;9.23;;;5.75;;
14732;SDS011;7457;50.960;6.830;2023-08-01T04:24:34;9.10;;;6.50;;
14732;SDS011;7457;50.960;6.830;2023-08-01T04:26:59;9.20;;;5.97;;
14732;SDS011;7457;50.960;6.830;2023-08-01T04:29:25;7.65;;;6.10;;
14732;SDS011;7457;50.960;6.830;2023-08-01T04:31:51;8.20;;;6.07;;
14732;SDS011;7457;50.960;6.830;2023-08-01T04:34:16;10.02;;;5.70;;
14732;SDS011;7457;50.960;6.830;2023-08-01T04:36:42;9.68;;;5.78;;
14732;SDS011;7457;50.960;6.830;2023-08-01T04:39:08;7.28;;;4.97;;
14732;SDS011;7457;50.960;6.830;2023-08-01T04:41:33;10.25;;;6.20;;
14732;SDS011;7457;50.960;6.830;2023-08-01T04:43:59;11.55;;;7.10;;
14732;SDS011;7457;50.960;6.830;2023-08-01T04:46:25;9.50;;;5.93;;
14732;SDS011;7457;50.960;6.830;2023-08-01T04:48:50;8.88;;;6.35;;
14732;SDS011;7457;50.960;6.830;2023-08-01T04:51:16;9.50;;;6.13;;
14732;SDS011;7457;50.960;6.830;2023-08-01T04:53:41;10.45;;;6.75;;
14732;SDS011;7457;50.960;6.830;2023-08-01T04:56:07;12.48;;;6.05;;
14732;SDS011;7457;50.960;6.830;2023-08-01T04:58:32;9.23;;;6.25;;
14732;SDS011;7457;50.960;6.830;2023-08-01T05:00:58;12.00;;;6.43;;
14732;SDS011;7457;50.960;6.830;2023-08-01T05:03:24;10.90;;;6.18;;
14732;SDS011;7457;50.960;6.830;2023-08-01T05:05:49;10.95;;;6.50;;
14732;SDS011;7457;50.960;6.830;2023-08-01T05:08:15;13.25;;;6.90;;
14732;SDS011;7457;50.960;6.830;2023-08-01T05:10:41;11.75;;;6.97;;
14732;SDS011;7457;50.960;6.830;2023-08-01T05:13:06;9.63;;;5.82;;
14732;SDS011;7457;50.960;6.830;2023-08-01T05:15:32;9.63;;;5.82;;
14732;SDS011;7457;50.960;6.830;2023-08-01T05:17:58;8.40;;;5.90;;
14732;SDS011;7457;50.960;6.830;2023-08-01T05:20:23;11.27;;;7.00;;
14732;SDS011;7457;50.960;6.830;2023-08-01T05:22:50;9.55;;;5.63;;
14732;SDS011;7457;50.960;6.830;2023-08-01T05:25:16;12.77;;;5.70;;
14732;SDS011;7457;50.960;6.830;2023-08-01T05:27:42;9.65;;;6.05;;
14732;SDS011;7457;50.960;6.830;2023-08-01T05:30:09;11.40;;;4.97;;
14732;SDS011;7457;50.960;6.830;2023-08-01T05:32:35;8.13;;;5.63;;
14732;SDS011;7457;50.960;6.830;2023-08-01T05:35:01;7.78;;;4.90;;
14732;SDS011;7457;50.960;6.830;2023-08-01T05:37:27;9.60;;;5.20;;
14732;SDS011;7457;50.960;6.830;2023-08-01T05:39:53;11.75;;;4.75;;
14732;SDS011;7457;50.960;6.830;2023-08-01T05:42:18;9.70;;;5.30;;
14732;SDS011;7457;50.960;6.830;2023-08-01T05:44:44;6.30;;;4.53;;
14732;SDS011;7457;50.960;6.830;2023-08-01T05:47:09;8.20;;;5.15;;
14732;SDS011;7457;50.960;6.830;2023-08-01T05:49:35;8.00;;;5.10;;
14732;SDS011;7457;50.960;6.830;2023-08-01T05:52:01;6.43;;;5.18;;
14732;SDS011;7457;50.960;6.830;2023-08-01T05:54:26;8.02;;;5.13;;
14732;SDS011;7457;50.960;6.830;2023-08-01T05:56:52;7.60;;;4.78;;
14732;SDS011;7457;50.960;6.830;2023-08-01T05:59:19;6.60;;;4.88;;
14732;SDS011;7457;50.960;6.830;2023-08-01T06:01:44;8.02;;;4.70;;
14732;SDS011;7457;50.960;6.830;2023-08-01T06:04:10;8.65;;;4.22;;
14732;SDS011;7457;50.960;6.830;2023-08-01T06:06:36;10.93;;;4.95;;
14732;SDS011;7457;50.960;6.830;2023-08-01T06:09:01;8.82;;;4.53;;
14732;SDS011;7457;50.960;6.830;2023-08-01T06:11:27;9.40;;;5.05;;
14732;SDS011;7457;50.960;6.830;2023-08-01T06:13:53;8.50;;;4.80;;
14732;SDS011;7457;50.960;6.830;2023-08-01T06:16:19;11.20;;;5.15;;
14732;SDS011;7457;50.960;6.830;2023-08-01T06:18:44;9.98;;;4.78;;
14732;SDS011;7457;50.960;6.830;2023-08-01T06:21:10;10.85;;;4.82;;
14732;SDS011;7457;50.960;6.830;2023-08-01T06:23:36;8.60;;;4.63;;
14732;SDS011;7457;50.960;6.830;2023-08-01T06:26:01;7.22;;;4.22;;
14732;SDS011;7457;50.960;6.830;2023-08-01T06:28:27;9.02;;;4.82;;
14732;SDS011;7457;50.960;6.830;2023-08-01T06:30:53;6.93;;;5.03;;
14732;SDS011;7457;50.960;6.830;2023-08-01T06:33:18;6.65;;;4.80;;
14732;SDS011;7457;50.960;6.830;2023-08-01T06:35:44;6.10;;;4.68;;
14732;SDS011;7457;50.960;6.830;2023-08-01T06:38:09;9.88;;;4.35;;
14732;SDS011;7457;50.960;6.830;2023-08-01T06:40:35;9.60;;;4.80;;
14732;SDS011;7457;50.960;6.830;2023-08-01T06:43:01;6.85;;;4.57;;
14732;SDS011;7457;50.960;6.830;2023-08-01T06:45:26;11.07;;;5.15;;
14732;SDS011;7457;50.960;6.830;2023-08-01T06:47:52;8.23;;;4.10;;
14732;SDS011;7457;50.960;6.830;2023-08-01T06:50:18;8.02;;;4.90;;
14732;SDS011;7457;50.960;6.830;2023-08-01T06:52:43;11.55;;;4.78;;
14732;SDS011;7457;50.960;6.830;2023-08-01T06:55:09;8.57;;;4.70;;
14732;SDS011;7457;50.960;6.830;2023-08-01T06:57:35;11.02;;;5.00;;
14732;SDS011;7457;50.960;6.830;2023-08-01T07:00:00;7.93;;;4.90;;
14732;SDS011;7457;50.960;6.830;2023-08-01T07:02:26;8.65;;;5.15;;
14732;SDS011;7457;50.960;6.830;2023-08-01T07:04:52;11.18;;;4.70;;
14732;SDS011;7457;50.960;6.830;2023-08-01T07:07:17;11.93;;;5.20;;
14732;SDS011;7457;50.960;6.830;2023-08-01T07:09:43;7.13;;;5.32;;
14732;SDS011;7457;50.960;6.830;2023-08-01T07:12:09;7.90;;;5.00;;
14732;SDS011;7457;50.960;6.830;2023-08-01T07:14:35;9.55;;;5.10;;
14732;SDS011;7457;50.960;6.830;2023-08-01T07:17:00;9.43;;;4.78;;
14732;SDS011;7457;50.960;6.830;2023-08-01T07:19:26;13.00;;;5.95;;
14732;SDS011;7457;50.960;6.830;2023-08-01T07:21:52;8.88;;;4.70;;
14732;SDS011;7457;50.960;6.830;2023-08-01T07:24:17;10.38;;;5.60;;
14732;SDS011;7457;50.960;6.830;2023-08-01T07:26:43;5.70;;;5.13;;
14732;SDS011;7457;50.960;6.830;2023-08-01T07:29:09;9.50;;;5.50;;
14732;SDS011;7457;50.960;6.830;2023-08-01T07:31:36;7.60;;;5.45;;
14732;SDS011;7457;50.960;6.830;2023-08-01T07:34:02;8.20;;;5.53;;
14732;SDS011;7457;50.960;6.830;2023-08-01T07:36:27;8.40;;;5.03;;
14732;SDS011;7457;50.960;6.830;2023-08-01T07:38:53;10.60;;;5.10;;
14732;SDS011;7457;50.960;6.830;2023-08-01T07:41:21;9.95;;;5.40;;
14732;SDS011;7457;50.960;6.830;2023-08-01T07:43:46;8.52;;;4.80;;
14732;SDS011;7457;50.960;6.830;2023-08-01T07:46:13;6.50;;;4.85;;
14732;SDS011;7457;50.960;6.830;2023-08-01T07:48:39;7.93;;;5.13;;
14732;SDS011;7457;50.960;6.830;2023-08-01T07:51:05;9.98;;;5.00;;
14732;SDS011;7457;50.960;6.830;2023-08-01T07:53:32;8.77;;;5.13;;
14732;SDS011;7457;50.960;6.830;2023-08-01T07:56:00;8.02;;;4.40;;
14732;SDS011;7457;50.960;6.830;2023-08-01T07:58:31;6.95;;;4.82;;
14732;SDS011;7457;50.960;6.830;2023-08-01T08:01:01;7.47;;;4.90;;
14732;SDS011;7457;50.960;6.830;2023-08-01T08:03:31;7.85;;;4.55;;
14732;SDS011;7457;50.960;6.830;2023-08-01T08:05:57;8.48;;;4.65;;
14732;SDS011;7457;50.960;6.830;2023-08-01T08:08:23;7.72;;;4.85;;
14732;SDS011;7457;50.960;6.830;2023-08-01T08:10:49;7.97;;;4.35;;
14732;SDS011;7457;50.960;6.830;2023-08-01T08:13:14;9.00;;;4.47;;
14732;SDS011;7457;50.960;6.830;2023-08-01T08:15:40;11.55;;;5.30;;
14732;SDS011;7457;50.960;6.830;2023-08-01T08:18:06;6.43;;;4.75;;
14732;SDS011;7457;50.960;6.830;2023-08-01T08:20:33;9.27;;;5.55;;
14732;SDS011;7457;50.960;6.830;2023-08-01T08:23:05;9.18;;;4.78;;
14732;SDS011;7457;50.960;6.830;2023-08-01T08:25:31;7.57;;;4.78;;
14732;SDS011;7457;50.960;6.830;2023-08-01T08:27:56;6.53;;;4.88;;
14732;SDS011;7457;50.960;6.830;2023-08-01T08:30:22;6.10;;;4.40;;
14732;SDS011;7457;50.960;6.830;2023-08-01T08:32:48;7.00;;;4.53;;
14732;SDS011;7457;50.960;6.830;2023-08-01T08:35:14;10.65;;;4.82;;
14732;SDS011;7457;50.960;6.830;2023-08-01T08:37:39;9.75;;;4.88;;
14732;SDS011;7457;50.960;6.830;2023-08-01T08:40:05;7.15;;;4.70;;
14732;SDS011;7457;50.960;6.830;2023-08-01T08:42:32;7.88;;;4.70;;
14732;SDS011;7457;50.960;6.830;2023-08-01T08:45:00;7.32;;;4.72;;
14732;SDS011;7457;50.960;6.830;2023-08-01T08:47:26;7.68;;;4.88;;
14732;SDS011;7457;50.960;6.830;2023-08-01T08:49:55;7.43;;;4.38;;
14732;SDS011;7457;50.960;6.830;2023-08-01T08:52:24;6.07;;;4.40;;
14732;SDS011;7457;50.960;6.830;2023-08-01T08:54:51;7.55;;;4.63;;
14732;SDS011;7457;50.960;6.830;2023-08-01T08:57:18;8.52;;;4.55;;
14732;SDS011;7457;50.960;6.830;2023-08-01T08:59:44;5.55;;;3.78;;
14732;SDS011;7457;50.960;6.830;2023-08-01T09:02:11;8.35;;;3.85;;
14732;SDS011;7457;50.960;6.830;2023-08-01T09:04:39;5.00;;;3.67;;
14732;SDS011;7457;50.960;6.830;2023-08-01T09:07:08;5.03;;;3.17;;
14732;SDS011;7457;50.960;6.830;2023-08-01T09:09:38;5.13;;;3.33;;
14732;SDS011;7457;50.960;6.830;2023-08-01T09:12:04;6.65;;;3.40;;
14732;SDS011;7457;50.960;6.830;2023-08-01T09:14:30;7.15;;;3.20;;
14732;SDS011;7457;50.960;6.830;2023-08-01T09:17:05;5.13;;;3.45;;
14732;SDS011;7457;50.960;6.830;2023-08-01T09:19:31;6.70;;;3.42;;
14732;SDS011;7457;50.960;6.830;2023-08-01T09:21:58;5.70;;;3.28;;
14732;SDS011;7457;50.960;6.830;2023-08-01T09:24:24;4.70;;;3.08;;
14732;SDS011;7457;50.960;6.830;2023-08-01T09:26:50;6.50;;;3.70;;
14732;SDS011;7457;50.960;6.830;2023-08-01T09:29:17;9.73;;;3.85;;
14732;SDS011;7457;50.960;6.830;2023-08-01T09:31:43;8.20;;;3.80;;
14732;SDS011;7457;50.960;6.830;2023-08-01T09:34:24;5.93;;;3.45;;
14732;SDS011;7457;50.960;6.830;2023-08-01T09:36:57;7.75;;;3.53;;
14732;SDS011;7457;50.960;6.830;2023-08-01T09:39:24;6.00;;;3.50;;
14732;SDS011;7457;50.960;6.830;2023-08-01T09:44:23;5.22;;;3.65;;
14732;SDS011;7457;50.960;6.830;2023-08-01T09:47:10;7.43;;;3.20;;
14732;SDS011;7457;50.960;6.830;2023-08-01T09:49:46;4.78;;;3.13;;
14732;SDS011;7457;50.960;6.830;2023-08-01T09:52:14;6.18;;;3.03;;
14732;SDS011;7457;50.960;6.830;2023-08-01T09:54:39;4.80;;;2.97;;
14732;SDS011;7457;50.960;6.830;2023-08-01T09:57:05;4.10;;;2.92;;
14732;SDS011;7457;50.960;6.830;2023-08-01T09:59:32;5.93;;;3.10;;
14732;SDS011;7457;50.960;6.830;2023-08-01T10:01:59;6.78;;;3.40;;
14732;SDS011;7457;50.960;6.830;2023-08-01T10:04:29;5.90;;;3.25;;
14732;SDS011;7457;50.960;6.830;2023-08-01T10:07:00;5.32;;;3.38;;
14732;SDS011;7457;50.960;6.830;2023-08-01T10:09:31;5.60;;;2.90;;
14732;SDS011;7457;50.960;6.830;2023-08-01T10:11:58;5.22;;;2.90;;
14732;SDS011;7457;50.960;6.830;2023-08-01T10:14:25;5.88;;;3.30;;
14732;SDS011;7457;50.960;6.830;2023-08-01T10:16:51;7.25;;;3.78;;
14732;SDS011;7457;50.960;6.830;2023-08-01T10:19:17;6.57;;;3.63;;
14732;SDS011;7457;50.960;6.830;2023-08-01T10:21:44;9.13;;;4.18;;
14732;SDS011;7457;50.960;6.830;2023-08-01T10:24:11;7.03;;;3.50;;
14732;SDS011;7457;50.960;6.830;2023-08-01T10:26:39;6.60;;;3.30;;
14732;SDS011;7457;50.960;6.830;2023-08-01T10:29:05;5.35;;;3.25;;
14732;SDS011;7457;50.960;6.830;2023-08-01T10:31:30;6.63;;;3.10;;
14732;SDS011;7457;50.960;6.830;2023-08-01T10:34:11;6.97;;;3.53;;
14732;SDS011;7457;50.960;6.830;2023-08-01T10:36:38;5.10;;;3.65;;
14732;SDS011;7457;50.960;6.830;2023-08-01T10:39:03;6.00;;;3.47;;
14732;SDS011;7457;50.960;6.830;2023-08-01T10:41:34;4.85;;;3.00;;
14732;SDS011;7457;50.960;6.830;2023-08-01T10:44:15;4.90;;;2.85;;
14732;SDS011;7457;50.960;6.830;2023-08-01T10:46:47;7.00;;;3.30;;
14732;SDS011;7457;50.960;6.830;2023-08-01T10:49:14;8.73;;;3.03;;
14732;SDS011;7457;50.960;6.830;2023-08-01T10:51:41;6.72;;;3.72;;
14732;SDS011;7457;50.960;6.830;2023-08-01T10:54:17;4.72;;;3.05;;
14732;SDS011;7457;50.960;6.830;2023-08-01T10:56:48;5.78;;;3.08;;
14732;SDS011;7457;50.960;6.830;2023-08-01T10:59:14;5.80;;;2.70;;
14732;SDS011;7457;50.960;6.830;2023-08-01T11:01:51;2.90;;;2.60;;
14732;SDS011;7457;50.960;6.830;2023-08-01T11:04:18;5.35;;;2.88;;
14732;SDS011;7457;50.960;6.830;2023-08-01T11:06:50;4.07;;;2.65;;
14732;SDS011;7457;50.960;6.830;2023-08-01T11:09:21;5.65;;;2.70;;
14732;SDS011;7457;50.960;6.830;2023-08-01T11:11:49;4.32;;;2.35;;
14732;SDS011;7457;50.960;6.830;2023-08-01T11:14:16;4.40;;;2.42;;
14732;SDS011;7457;50.960;6.830;2023-08-01T11:16:45;5.20;;;2.78;;
14732;SDS011;7457;50.960;6.830;2023-08-01T11:19:28;3.67;;;2.65;;
14732;SDS011;7457;50.960;6.830;2023-08-01T11:21:55;3.78;;;2.20;;
14732;SDS011;7457;50.960;6.830;2023-08-01T11:24:23;5.82;;;2.55;;
14732;SDS011;7457;50.960;6.830;2023-08-01T11:26:50;3.67;;;2.63;;
14732;SDS011;7457;50.960;6.830;2023-08-01T11:29:17;4.75;;;3.30;;
14732;SDS011;7457;50.960;6.830;2023-08-01T11:31:57;5.53;;;3.80;;
14732;SDS011;7457;50.960;6.830;2023-08-01T11:34:23;9.05;;;3.83;;
14732;SDS011;7457;50.960;6.830;2023-08-01T11:36:49;3.83;;;3.17;;
14732;SDS011;7457;50.960;6.830;2023-08-01T11:39:16;3.58;;;2.50;;
14732;SDS011;7457;50.960;6.830;2023-08-01T11:41:42;5.00;;;2.75;;
14732;SDS011;7457;50.960;6.830;2023-08-01T11:44:09;4.10;;;2.63;;
14732;SDS011;7457;50.960;6.830;2023-08-01T11:46:36;3.95;;;2.42;;
14732;SDS011;7457;50.960;6.830;2023-08-01T11:49:02;4.40;;;2.28;;
14732;SDS011;7457;50.960;6.830;2023-08-01T11:51:28;4.80;;;2.28;;
14732;SDS011;7457;50.960;6.830;2023-08-01T11:53:58;7.40;;;2.38;;
14732;SDS011;7457;50.960;6.830;2023-08-01T11:56:27;6.43;;;3.60;;
14732;SDS011;7457;50.960;6.830;2023-08-01T11:58:53;6.53;;;2.63;;
14732;SDS011;7457;50.960;6.830;2023-08-01T12:01:18;4.30;;;2.40;;
14732;SDS011;7457;50.960;6.830;2023-08-01T12:03:48;4.70;;;2.97;;
14732;SDS011;7457;50.960;6.830;2023-08-01T12:06:19;5.78;;;2.83;;
14732;SDS011;7457;50.960;6.830;2023-08-01T12:08:47;6.40;;;2.78;;
14732;SDS011;7457;50.960;6.830;2023-08-01T12:11:17;3.38;;;2.25;;
14732;SDS011;7457;50.960;6.830;2023-08-01T12:13:47;4.43;;;2.22;;
14732;SDS011;7457;50.960;6.830;2023-08-01T12:16:13;3.80;;;2.33;;
14732;SDS011;7457;50.960;6.830;2023-08-01T12:18:42;5.65;;;2.05;;
14732;SDS011;7457;50.960;6.830;2023-08-01T12:21:09;3.50;;;1.80;;
14732;SDS011;7457;50.960;6.830;2023-08-01T12:23:35;4.72;;;2.15;;
14732;SDS011;7457;50.960;6.830;2023-08-01T12:26:01;4.43;;;2.20;;
14732;SDS011;7457;50.960;6.830;2023-08-01T12:28:27;5.68;;;2.17;;
14732;SDS011;7457;50.960;6.830;2023-08-01T12:30:52;10.32;;;2.72;;
14732;SDS011;7457;50.960;6.830;2023-08-01T12:33:18;15.50;;;3.10;;
14732;SDS011;7457;50.960;6.830;2023-08-01T12:35:44;5.82;;;3.03;;
14732;SDS011;7457;50.960;6.830;2023-08-01T12:38:10;11.63;;;3.33;;
14732;SDS011;7457;50.960;6.830;2023-08-01T12:40:36;5.72;;;3.00;;
14732;SDS011;7457;50.960;6.830;2023-08-01T12:43:01;5.07;;;2.97;;
14732;SDS011;7457;50.960;6.830;2023-08-01T12:45:27;4.93;;;2.42;;
14732;SDS011;7457;50.960;6.830;2023-08-01T12:47:53;5.25;;;2.15;;
14732;SDS011;7457;50.960;6.830;2023-08-01T12:50:19;5.75;;;2.28;;
14732;SDS011;7457;50.960;6.830;2023-08-01T12:52:44;3.05;;;2.08;;
14732;SDS011;7457;50.960;6.830;2023-08-01T12:55:10;5.57;;;2.20;;
14732;SDS011;7457;50.960;6.830;2023-08-01T12:57:36;5.60;;;2.58;;
14732;SDS011;7457;50.960;6.830;2023-08-01T13:00:02;4.35;;;2.13;;
14732;SDS011;7457;50.960;6.830;2023-08-01T13:02:28;3.45;;;1.80;;
14732;SDS011;7457;50.960;6.830;2023-08-01T13:04:53;4.20;;;2.25;;
14732;SDS011;7457;50.960;6.830;2023-08-01T13:07:19;4.72;;;2.50;;
14732;SDS011;7457;50.960;6.830;2023-08-01T13:09:44;4.30;;;2.05;;
14732;SDS011;7457;50.960;6.830;2023-08-01T13:12:10;5.18;;;1.88;;
14732;SDS011;7457;50.960;6.830;2023-08-01T13:14:36;6.00;;;2.20;;
14732;SDS011;7457;50.960;6.830;2023-08-01T13:17:02;8.20;;;2.10;;
14732;SDS011;7457;50.960;6.830;2023-08-01T13:19:27;5.28;;;2.72;;
14732;SDS011;7457;50.960;6.830;2023-08-01T13:21:53;4.57;;;2.22;;
14732;SDS011;7457;50.960;6.830;2023-08-01T13:24:19;3.25;;;2.08;;
14732;SDS011;7457;50.960;6.830;2023-08-01T13:26:44;7.40;;;2.03;;
14732;SDS011;7457;50.960;6.830;2023-08-01T13:29:10;5.63;;;2.20;;
14732;SDS011;7457;50.960;6.830;2023-08-01T13:31:36;3.22;;;2.72;;
14732;SDS011;7457;50.960;6.830;2023-08-01T13:34:01;5.82;;;2.58;;
14732;SDS011;7457;50.960;6.830;2023-08-01T13:36:27;7.07;;;2.60;;
14732;SDS011;7457;50.960;6.830;2023-08-01T13:38:53;6.43;;;2.67;;
14732;SDS011;7457;50.960;6.830;2023-08-01T13:41:18;4.75;;;2.85;;
14732;SDS011;7457;50.960;6.830;2023-08-01T13:43:44;3.10;;;2.45;;
14732;SDS011;7457;50.960;6.830;2023-08-01T13:46:14;7.15;;;2.75;;
14732;SDS011;7457;50.960;6.830;2023-08-01T13:48:41;4.80;;;3.03;;
14732;SDS011;7457;50.960;6.830;2023-08-01T13:51:07;5.20;;;2.92;;
14732;SDS011;7457;50.960;6.830;2023-08-01T13:53:33;6.00;;;3.10;;
14732;SDS011;7457;50.960;6.830;2023-08-01T13:55:58;5.93;;;3.20;;
14732;SDS011;7457;50.960;6.830;2023-08-01T13:58:25;4.95;;;2.60;;
14732;SDS011;7457;50.960;6.830;2023-08-01T14:00:50;4.15;;;2.72;;
14732;SDS011;7457;50.960;6.830;2023-08-01T14:03:16;8.20;;;3.10;;
14732;SDS011;7457;50.960;6.830;2023-08-01T14:05:41;5.25;;;2.67;;
14732;SDS011;7457;50.960;6.830;2023-08-01T14:08:07;4.85;;;2.83;;
14732;SDS011;7457;50.960;6.830;2023-08-01T14:10:33;5.00;;;2.60;;
14732;SDS011;7457;50.960;6.830;2023-08-01T14:12:58;4.45;;;2.78;;
14732;SDS011;7457;50.960;6.830;2023-08-01T14:15:24;5.45;;;2.80;;
14732;SDS011;7457;50.960;6.830;2023-08-01T14:17:50;3.97;;;2.50;;
14732;SDS011;7457;50.960;6.830;2023-08-01T14:20:15;4.25;;;2.63;;
14732;SDS011;7457;50.960;6.830;2023-08-01T14:22:41;7.18;;;2.40;;
14732;SDS011;7457;50.960;6.830;2023-08-01T14:25:11;7.93;;;2.88;;
14732;SDS011;7457;50.960;6.830;2023-08-01T14:27:37;5.57;;;2.50;;
14732;SDS011;7457;50.960;6.830;2023-08-01T14:30:02;7.80;;;2.90;;
14732;SDS011;7457;50.960;6.830;2023-08-01T14:32:30;3.92;;;2.60;;
14732;SDS011;7457;50.960;6.830;2023-08-01T14:34:56;5.15;;;2.75;;
14732;SDS011;7457;50.960;6.830;2023-08-01T14:37:22;6.28;;;2.67;;
14732;SDS011;7457;50.960;6.830;2023-08-01T14:39:49;4.63;;;2.72;;
14732;SDS011;7457;50.960;6.830;2023-08-01T14:42:15;5.63;;;2.72;;
14732;SDS011;7457;50.960;6.830;2023-08-01T14:44:41;6.78;;;2.10;;
14732;SDS011;7457;50.960;6.830;2023-08-01T14:47:07;8.57;;;2.42;;
14732;SDS011;7457;50.960;6.830;2023-08-01T14:49:32;7.22;;;2.38;;
14732;SDS011;7457;50.960;6.830;2023-08-01T14:51:58;4.05;;;2.50;;
14732;SDS011;7457;50.960;6.830;2023-08-01T14:54:24;5.25;;;2.40;;
14732;SDS011;7457;50.960;6.830;2023-08-01T14:56:51;6.13;;;2.47;;
14732;SDS011;7457;50.960;6.830;2023-08-01T14:59:17;7.43;;;2.70;;